sensor_id;sensor_type;location;lat;lon;timestamp;temperature;humidity
9371;DHT22;4725;48.384;8.984;2023-12-20T00:00:21;5.60;99.90
9371;DHT22;4725;48.384;8.984;2023-12-20T00:02:47;5.60;99.90
9371;DHT22;4725;48.384;8.984;2023-12-20T00:05:14;5.70;99.90
9371;DHT22;4725;48.384;8.984;2023-12-20T00:07:41;5.70;99.90
9371;DHT22;4725;48.384;8.984;2023-12-20T00:10:09;5.80;99.90
9371;DHT22;4725;48.384;8.984;2023-12-20T00:12:38;5.80;99.90
9371;DHT22;4725;48.384;8.984;2023-12-20T00:15:07;5.70;99.90
9371;DHT22;4725;48.384;8.984;2023-12-20T00:17:34;5.70;99.90
9371;DHT22;4725;48.384;8.984;2023-12-20T00:20:01;5.80;99.90
9371;DHT22;4725;48.384;8.984;2023-12-20T00:22:28;5.80;99.90
9371;DHT22;4725;48.384;8.984;2023-12-20T00:24:55;5.80;99.90
9371;DHT22;4725;48.384;8.984;2023-12-20T00:27:21;6.00;99.90
9371;DHT22;4725;48.384;8.984;2023-12-20T00:29:48;5.90;99.90
9371;DHT22;4725;48.384;8.984;2023-12-20T00:32:17;5.90;99.90
9371;DHT22;4725;48.384;8.984;2023-12-20T00:34:44;5.80;99.90
9371;DHT22;4725;48.384;8.984;2023-12-20T00:39:38;5.80;99.90
9371;DHT22;4725;48.384;8.984;2023-12-20T00:42:05;5.70;99.90
9371;DHT22;4725;48.384;8.984;2023-12-20T00:44:32;5.70;99.90
9371;DHT22;4725;48.384;8.984;2023-12-20T00:46:58;5.80;99.90
9371;DHT22;4725;48.384;8.984;2023-12-20T00:49:27;5.80;99.90
9371;DHT22;4725;48.384;8.984;2023-12-20T00:51:54;5.70;99.90
9371;DHT22;4725;48.384;8.984;2023-12-20T00:54:21;5.60;99.90
9371;DHT22;4725;48.384;8.984;2023-12-20T00:56:48;5.60;99.90
9371;DHT22;4725;48.384;8.984;2023-12-20T00:59:16;5.70;99.90
9371;DHT22;4725;48.384;8.984;2023-12-20T01:01:42;5.60;99.90
9371;DHT22;4725;48.384;8.984;2023-12-20T01:04:09;5.60;99.90
9371;DHT22;4725;48.384;8.984;2023-12-20T01:06:38;5.60;99.90
9371;DHT22;4725;48.384;8.984;2023-12-20T01:09:04;5.60;99.90
9371;DHT22;4725;48.384;8.984;2023-12-20T01:11:31;5.50;99.90
9371;DHT22;4725;48.384;8.984;2023-12-20T01:13:58;5.50;99.90
9371;DHT22;4725;48.384;8.984;2023-12-20T01:16:25;5.50;99.90
9371;DHT22;4725;48.384;8.984;2023-12-20T01:18:52;5.60;99.90
9371;DHT22;4725;48.384;8.984;2023-12-20T01:21:18;5.60;99.90
9371;DHT22;4725;48.384;8.984;2023-12-20T01:23:46;5.60;99.90
9371;DHT22;4725;48.384;8.984;2023-12-20T01:26:15;5.60;99.90
9371;DHT22;4725;48.384;8.984;2023-12-20T01:28:42;5.60;99.90
9371;DHT22;4725;48.384;8.984;2023-12-20T01:31:09;5.50;99.90
9371;DHT22;4725;48.384;8.984;2023-12-20T01:33:36;5.50;99.90
9371;DHT22;4725;48.384;8.984;2023-12-20T01:36:03;5.40;99.90
9371;DHT22;4725;48.384;8.984;2023-12-20T01:40:59;5.10;99.90
9371;DHT22;4725;48.384;8.984;2023-12-20T01:43:26;5.00;99.90
9371;DHT22;4725;48.384;8.984;2023-12-20T01:45:53;5.00;99.90
9371;DHT22;4725;48.384;8.984;2023-12-20T01:48:21;4.80;99.90
9371;DHT22;4725;48.384;8.984;2023-12-20T01:50:49;4.80;99.90
9371;DHT22;4725;48.384;8.984;2023-12-20T01:53:16;4.80;99.90
9371;DHT22;4725;48.384;8.984;2023-12-20T01:55:43;4.70;99.90
9371;DHT22;4725;48.384;8.984;2023-12-20T01:58:13;4.80;99.90
9371;DHT22;4725;48.384;8.984;2023-12-20T02:00:40;4.80;99.90
9371;DHT22;4725;48.384;8.984;2023-12-20T02:03:07;4.70;99.90
9371;DHT22;4725;48.384;8.984;2023-12-20T02:05:35;4.60;99.90
9371;DHT22;4725;48.384;8.984;2023-12-20T02:08:02;4.50;99.90
9371;DHT22;4725;48.384;8.984;2023-12-20T02:10:29;4.50;99.90
9371;DHT22;4725;48.384;8.984;2023-12-20T02:12:56;4.40;99.90
9371;DHT22;4725;48.384;8.984;2023-12-20T02:15:24;4.30;99.90
9371;DHT22;4725;48.384;8.984;2023-12-20T02:17:51;4.20;99.90
9371;DHT22;4725;48.384;8.984;2023-12-20T02:20:18;4.20;99.90
9371;DHT22;4725;48.384;8.984;2023-12-20T02:22:46;4.20;99.90
9371;DHT22;4725;48.384;8.984;2023-12-20T02:25:13;4.10;99.90
9371;DHT22;4725;48.384;8.984;2023-12-20T02:27:40;4.00;99.90
9371;DHT22;4725;48.384;8.984;2023-12-20T02:30:07;4.10;99.90
9371;DHT22;4725;48.384;8.984;2023-12-20T02:32:34;4.10;99.90
9371;DHT22;4725;48.384;8.984;2023-12-20T02:35:01;4.10;99.90
9371;DHT22;4725;48.384;8.984;2023-12-20T02:37:28;4.00;99.90
9371;DHT22;4725;48.384;8.984;2023-12-20T02:39:56;4.10;99.90
9371;DHT22;4725;48.384;8.984;2023-12-20T02:42:23;4.00;99.90
9371;DHT22;4725;48.384;8.984;2023-12-20T02:44:50;3.90;99.90
9371;DHT22;4725;48.384;8.984;2023-12-20T02:47:17;3.90;99.90
9371;DHT22;4725;48.384;8.984;2023-12-20T02:49:43;3.90;99.90
9371;DHT22;4725;48.384;8.984;2023-12-20T02:52:10;3.90;99.90
9371;DHT22;4725;48.384;8.984;2023-12-20T02:54:37;4.00;99.90
9371;DHT22;4725;48.384;8.984;2023-12-20T02:57:06;4.00;99.90
9371;DHT22;4725;48.384;8.984;2023-12-20T02:59:33;4.10;99.90
9371;DHT22;4725;48.384;8.984;2023-12-20T03:01:59;4.10;99.90
9371;DHT22;4725;48.384;8.984;2023-12-20T03:04:26;4.10;99.90
9371;DHT22;4725;48.384;8.984;2023-12-20T03:06:53;4.10;99.90
9371;DHT22;4725;48.384;8.984;2023-12-20T03:09:20;4.30;99.90
9371;DHT22;4725;48.384;8.984;2023-12-20T03:11:47;4.30;99.90
9371;DHT22;4725;48.384;8.984;2023-12-20T03:14:15;4.40;99.90
9371;DHT22;4725;48.384;8.984;2023-12-20T03:16:41;4.40;99.90
9371;DHT22;4725;48.384;8.984;2023-12-20T03:19:08;4.40;99.90
9371;DHT22;4725;48.384;8.984;2023-12-20T03:21:35;4.40;99.90
9371;DHT22;4725;48.384;8.984;2023-12-20T03:24:02;4.30;99.90
9371;DHT22;4725;48.384;8.984;2023-12-20T03:26:29;4.40;99.90
9371;DHT22;4725;48.384;8.984;2023-12-20T03:28:56;4.40;99.90
9371;DHT22;4725;48.384;8.984;2023-12-20T03:31:24;4.40;99.90
9371;DHT22;4725;48.384;8.984;2023-12-20T03:33:51;4.40;99.90
9371;DHT22;4725;48.384;8.984;2023-12-20T03:36:19;4.40;99.90
9371;DHT22;4725;48.384;8.984;2023-12-20T03:38:46;4.40;99.90
9371;DHT22;4725;48.384;8.984;2023-12-20T03:41:13;4.40;99.90
9371;DHT22;4725;48.384;8.984;2023-12-20T03:43:40;4.40;99.90
9371;DHT22;4725;48.384;8.984;2023-12-20T03:46:08;4.30;99.90
9371;DHT22;4725;48.384;8.984;2023-12-20T03:48:36;4.30;99.90
9371;DHT22;4725;48.384;8.984;2023-12-20T03:51:03;4.30;99.90
9371;DHT22;4725;48.384;8.984;2023-12-20T03:53:30;4.30;99.90
9371;DHT22;4725;48.384;8.984;2023-12-20T03:55:56;4.20;99.90
9371;DHT22;4725;48.384;8.984;2023-12-20T03:58:23;4.20;99.90
9371;DHT22;4725;48.384;8.984;2023-12-20T04:00:50;4.20;99.90
9371;DHT22;4725;48.384;8.984;2023-12-20T04:03:17;4.20;99.90
9371;DHT22;4725;48.384;8.984;2023-12-20T04:05:45;4.20;99.90
9371;DHT22;4725;48.384;8.984;2023-12-20T04:08:12;4.10;99.90
9371;DHT22;4725;48.384;8.984;2023-12-20T04:10:39;4.10;99.90
9371;DHT22;4725;48.384;8.984;2023-12-20T04:13:06;4.10;99.90
9371;DHT22;4725;48.384;8.984;2023-12-20T04:15:33;4.10;99.90
9371;DHT22;4725;48.384;8.984;2023-12-20T04:18:00;4.10;99.90
9371;DHT22;4725;48.384;8.984;2023-12-20T04:20:26;4.00;99.90
9371;DHT22;4725;48.384;8.984;2023-12-20T04:22:55;4.00;99.90
9371;DHT22;4725;48.384;8.984;2023-12-20T04:25:21;4.00;99.90
9371;DHT22;4725;48.384;8.984;2023-12-20T04:27:48;4.00;99.90
9371;DHT22;4725;48.384;8.984;2023-12-20T04:30:15;4.00;99.90
9371;DHT22;4725;48.384;8.984;2023-12-20T04:32:42;4.00;99.90
9371;DHT22;4725;48.384;8.984;2023-12-20T04:35:09;4.00;99.90
9371;DHT22;4725;48.384;8.984;2023-12-20T04:37:35;3.90;99.90
9371;DHT22;4725;48.384;8.984;2023-12-20T04:40:05;3.90;99.90
9371;DHT22;4725;48.384;8.984;2023-12-20T04:42:33;3.90;99.90
9371;DHT22;4725;48.384;8.984;2023-12-20T04:44:59;4.00;99.90
9371;DHT22;4725;48.384;8.984;2023-12-20T04:47:26;3.90;99.90
9371;DHT22;4725;48.384;8.984;2023-12-20T04:49:53;3.90;99.90
9371;DHT22;4725;48.384;8.984;2023-12-20T04:52:20;3.80;99.90
9371;DHT22;4725;48.384;8.984;2023-12-20T04:54:47;3.80;99.90
9371;DHT22;4725;48.384;8.984;2023-12-20T04:57:15;3.80;99.90
9371;DHT22;4725;48.384;8.984;2023-12-20T04:59:42;3.80;99.90
9371;DHT22;4725;48.384;8.984;2023-12-20T05:02:08;3.80;99.90
9371;DHT22;4725;48.384;8.984;2023-12-20T05:04:35;3.80;99.90
9371;DHT22;4725;48.384;8.984;2023-12-20T05:07:02;3.70;99.90
9371;DHT22;4725;48.384;8.984;2023-12-20T05:09:30;3.70;99.90
9371;DHT22;4725;48.384;8.984;2023-12-20T05:11:57;3.70;99.90
9371;DHT22;4725;48.384;8.984;2023-12-20T05:14:25;3.80;99.90
9371;DHT22;4725;48.384;8.984;2023-12-20T05:16:52;3.80;99.90
9371;DHT22;4725;48.384;8.984;2023-12-20T05:19:19;3.80;99.90
9371;DHT22;4725;48.384;8.984;2023-12-20T05:21:45;3.80;99.90
9371;DHT22;4725;48.384;8.984;2023-12-20T05:24:12;3.70;99.90
9371;DHT22;4725;48.384;8.984;2023-12-20T05:26:40;3.70;99.90
9371;DHT22;4725;48.384;8.984;2023-12-20T05:29:07;3.80;99.90
9371;DHT22;4725;48.384;8.984;2023-12-20T05:31:35;3.80;99.90
9371;DHT22;4725;48.384;8.984;2023-12-20T05:34:02;3.70;99.90
9371;DHT22;4725;48.384;8.984;2023-12-20T05:36:29;3.80;99.90
9371;DHT22;4725;48.384;8.984;2023-12-20T05:38:56;3.70;99.90
9371;DHT22;4725;48.384;8.984;2023-12-20T05:41:22;3.70;99.90
9371;DHT22;4725;48.384;8.984;2023-12-20T05:43:49;3.70;99.90
9371;DHT22;4725;48.384;8.984;2023-12-20T05:46:16;3.70;99.90
9371;DHT22;4725;48.384;8.984;2023-12-20T05:48:44;3.70;99.90
9371;DHT22;4725;48.384;8.984;2023-12-20T05:51:11;3.70;99.90
9371;DHT22;4725;48.384;8.984;2023-12-20T05:53:38;3.80;99.90
9371;DHT22;4725;48.384;8.984;2023-12-20T05:56:05;3.70;99.90
9371;DHT22;4725;48.384;8.984;2023-12-20T05:58:32;3.70;99.90
9371;DHT22;4725;48.384;8.984;2023-12-20T06:00:59;3.80;99.90
9371;DHT22;4725;48.384;8.984;2023-12-20T06:03:26;3.70;99.90
9371;DHT22;4725;48.384;8.984;2023-12-20T06:05:54;3.80;99.90
9371;DHT22;4725;48.384;8.984;2023-12-20T06:08:21;3.80;99.90
9371;DHT22;4725;48.384;8.984;2023-12-20T06:10:48;3.80;99.90
9371;DHT22;4725;48.384;8.984;2023-12-20T06:13:15;3.80;99.90
9371;DHT22;4725;48.384;8.984;2023-12-20T06:15:42;3.80;99.90
9371;DHT22;4725;48.384;8.984;2023-12-20T06:18:08;3.80;99.90
9371;DHT22;4725;48.384;8.984;2023-12-20T06:20:36;3.80;99.90
9371;DHT22;4725;48.384;8.984;2023-12-20T06:23:04;3.80;99.90
9371;DHT22;4725;48.384;8.984;2023-12-20T06:25:31;6.20;99.90
9371;DHT22;4725;48.384;8.984;2023-12-20T06:27:58;3.80;99.90
9371;DHT22;4725;48.384;8.984;2023-12-20T06:30:25;3.80;99.90
9371;DHT22;4725;48.384;8.984;2023-12-20T06:32:53;3.90;99.90
9371;DHT22;4725;48.384;8.984;2023-12-20T06:35:20;3.80;99.90
9371;DHT22;4725;48.384;8.984;2023-12-20T06:37:47;3.80;99.90
9371;DHT22;4725;48.384;8.984;2023-12-20T06:40:15;3.90;99.90
9371;DHT22;4725;48.384;8.984;2023-12-20T06:42:44;3.80;99.90
9371;DHT22;4725;48.384;8.984;2023-12-20T06:45:11;3.90;99.90
9371;DHT22;4725;48.384;8.984;2023-12-20T06:47:38;3.90;99.90
9371;DHT22;4725;48.384;8.984;2023-12-20T06:50:05;3.90;99.90
9371;DHT22;4725;48.384;8.984;2023-12-20T06:52:33;3.90;99.90
9371;DHT22;4725;48.384;8.984;2023-12-20T06:55:00;3.90;99.90
9371;DHT22;4725;48.384;8.984;2023-12-20T06:57:29;3.90;99.90
9371;DHT22;4725;48.384;8.984;2023-12-20T06:59:56;3.90;99.90
9371;DHT22;4725;48.384;8.984;2023-12-20T07:02:24;3.90;99.90
9371;DHT22;4725;48.384;8.984;2023-12-20T07:04:56;4.00;99.90
9371;DHT22;4725;48.384;8.984;2023-12-20T07:07:22;3.90;99.90
9371;DHT22;4725;48.384;8.984;2023-12-20T07:09:50;4.00;99.90
9371;DHT22;4725;48.384;8.984;2023-12-20T07:12:16;4.00;99.90
9371;DHT22;4725;48.384;8.984;2023-12-20T07:14:46;4.00;99.90
9371;DHT22;4725;48.384;8.984;2023-12-20T07:17:13;4.10;99.90
9371;DHT22;4725;48.384;8.984;2023-12-20T07:19:41;4.00;99.90
9371;DHT22;4725;48.384;8.984;2023-12-20T07:22:07;4.00;99.90
9371;DHT22;4725;48.384;8.984;2023-12-20T07:24:35;4.10;99.90
9371;DHT22;4725;48.384;8.984;2023-12-20T07:27:17;4.10;99.90
9371;DHT22;4725;48.384;8.984;2023-12-20T07:29:52;4.10;99.90
9371;DHT22;4725;48.384;8.984;2023-12-20T07:32:21;4.10;99.90
9371;DHT22;4725;48.384;8.984;2023-12-20T07:34:49;4.10;99.90
9371;DHT22;4725;48.384;8.984;2023-12-20T07:37:20;4.10;99.90
9371;DHT22;4725;48.384;8.984;2023-12-20T07:39:52;6.50;99.90
9371;DHT22;4725;48.384;8.984;2023-12-20T07:42:21;4.10;99.90
9371;DHT22;4725;48.384;8.984;2023-12-20T07:44:58;4.10;99.90
9371;DHT22;4725;48.384;8.984;2023-12-20T07:47:25;4.00;99.90
9371;DHT22;4725;48.384;8.984;2023-12-20T07:49:52;4.00;99.90
9371;DHT22;4725;48.384;8.984;2023-12-20T07:52:19;4.00;99.90
9371;DHT22;4725;48.384;8.984;2023-12-20T07:54:47;4.10;99.90
9371;DHT22;4725;48.384;8.984;2023-12-20T07:57:14;4.20;99.90
9371;DHT22;4725;48.384;8.984;2023-12-20T07:59:41;4.10;99.90
9371;DHT22;4725;48.384;8.984;2023-12-20T08:02:11;4.10;99.90
9371;DHT22;4725;48.384;8.984;2023-12-20T08:04:37;4.10;99.90
9371;DHT22;4725;48.384;8.984;2023-12-20T08:07:04;4.10;99.90
9371;DHT22;4725;48.384;8.984;2023-12-20T08:09:31;4.10;99.90
9371;DHT22;4725;48.384;8.984;2023-12-20T08:11:59;4.20;99.90
9371;DHT22;4725;48.384;8.984;2023-12-20T08:14:26;4.20;99.90
9371;DHT22;4725;48.384;8.984;2023-12-20T08:16:53;4.10;99.90
9371;DHT22;4725;48.384;8.984;2023-12-20T08:19:21;4.10;99.90
9371;DHT22;4725;48.384;8.984;2023-12-20T08:21:48;4.10;99.90
9371;DHT22;4725;48.384;8.984;2023-12-20T08:24:15;4.10;99.90
9371;DHT22;4725;48.384;8.984;2023-12-20T08:26:41;1.30;99.90
9371;DHT22;4725;48.384;8.984;2023-12-20T08:29:08;4.20;99.90
9371;DHT22;4725;48.384;8.984;2023-12-20T08:31:35;4.20;99.90
9371;DHT22;4725;48.384;8.984;2023-12-20T08:34:02;4.20;99.90
9371;DHT22;4725;48.384;8.984;2023-12-20T08:36:30;4.30;99.90
9371;DHT22;4725;48.384;8.984;2023-12-20T08:38:57;4.30;99.90
9371;DHT22;4725;48.384;8.984;2023-12-20T08:41:26;4.30;99.90
9371;DHT22;4725;48.384;8.984;2023-12-20T08:43:53;4.30;99.90
9371;DHT22;4725;48.384;8.984;2023-12-20T08:46:19;4.30;99.90
9371;DHT22;4725;48.384;8.984;2023-12-20T08:48:46;4.30;99.90
9371;DHT22;4725;48.384;8.984;2023-12-20T08:51:13;4.30;99.90
9371;DHT22;4725;48.384;8.984;2023-12-20T08:53:41;4.30;99.90
9371;DHT22;4725;48.384;8.984;2023-12-20T08:58:37;4.30;99.90
9371;DHT22;4725;48.384;8.984;2023-12-20T09:01:04;4.30;99.90
9371;DHT22;4725;48.384;8.984;2023-12-20T09:03:31;4.30;99.90
9371;DHT22;4725;48.384;8.984;2023-12-20T09:05:58;4.30;99.90
9371;DHT22;4725;48.384;8.984;2023-12-20T09:08:24;4.30;99.90
9371;DHT22;4725;48.384;8.984;2023-12-20T09:10:53;4.30;99.90
9371;DHT22;4725;48.384;8.984;2023-12-20T09:13:19;4.40;99.90
9371;DHT22;4725;48.384;8.984;2023-12-20T09:15:47;4.40;99.90
9371;DHT22;4725;48.384;8.984;2023-12-20T09:18:14;4.40;99.90
9371;DHT22;4725;48.384;8.984;2023-12-20T09:20:41;4.40;99.90
9371;DHT22;4725;48.384;8.984;2023-12-20T09:23:08;4.40;99.90
9371;DHT22;4725;48.384;8.984;2023-12-20T09:25:34;4.40;99.90
9371;DHT22;4725;48.384;8.984;2023-12-20T09:28:03;4.50;99.90
9371;DHT22;4725;48.384;8.984;2023-12-20T09:30:30;4.60;99.90
9371;DHT22;4725;48.384;8.984;2023-12-20T09:32:57;4.50;99.90
9371;DHT22;4725;48.384;8.984;2023-12-20T09:35:24;4.30;99.90
9371;DHT22;4725;48.384;8.984;2023-12-20T09:37:51;3.70;99.90
9371;DHT22;4725;48.384;8.984;2023-12-20T09:40:18;3.80;99.90
9371;DHT22;4725;48.384;8.984;2023-12-20T09:42:48;3.60;99.90
9371;DHT22;4725;48.384;8.984;2023-12-20T09:45:20;3.60;99.90
9371;DHT22;4725;48.384;8.984;2023-12-20T09:47:49;3.70;99.90
9371;DHT22;4725;48.384;8.984;2023-12-20T09:50:18;3.70;99.90
9371;DHT22;4725;48.384;8.984;2023-12-20T09:52:46;3.70;99.90
9371;DHT22;4725;48.384;8.984;2023-12-20T09:55:15;3.90;99.90
9371;DHT22;4725;48.384;8.984;2023-12-20T09:57:43;4.20;99.90
9371;DHT22;4725;48.384;8.984;2023-12-20T10:00:11;4.10;99.90
9371;DHT22;4725;48.384;8.984;2023-12-20T10:02:45;7.00;99.90
9371;DHT22;4725;48.384;8.984;2023-12-20T10:05:16;4.00;99.90
9371;DHT22;4725;48.384;8.984;2023-12-20T10:07:45;4.00;99.90
9371;DHT22;4725;48.384;8.984;2023-12-20T10:10:13;3.90;99.90
9371;DHT22;4725;48.384;8.984;2023-12-20T10:12:40;4.10;99.90
9371;DHT22;4725;48.384;8.984;2023-12-20T10:15:07;4.10;99.90
9371;DHT22;4725;48.384;8.984;2023-12-20T10:20:06;4.20;99.90
9371;DHT22;4725;48.384;8.984;2023-12-20T10:22:35;4.40;99.90
9371;DHT22;4725;48.384;8.984;2023-12-20T10:25:04;4.60;99.90
9371;DHT22;4725;48.384;8.984;2023-12-20T10:27:31;4.50;99.90
9371;DHT22;4725;48.384;8.984;2023-12-20T10:29:58;4.50;99.90
9371;DHT22;4725;48.384;8.984;2023-12-20T10:32:26;4.30;99.90
9371;DHT22;4725;48.384;8.984;2023-12-20T10:34:54;4.50;99.90
9371;DHT22;4725;48.384;8.984;2023-12-20T10:37:23;4.70;99.90
9371;DHT22;4725;48.384;8.984;2023-12-20T10:39:50;5.40;99.90
9371;DHT22;4725;48.384;8.984;2023-12-20T10:42:20;5.60;99.90
9371;DHT22;4725;48.384;8.984;2023-12-20T10:44:49;5.60;99.90
9371;DHT22;4725;48.384;8.984;2023-12-20T10:47:16;5.60;99.90
9371;DHT22;4725;48.384;8.984;2023-12-20T10:49:45;5.90;99.90
9371;DHT22;4725;48.384;8.984;2023-12-20T10:52:12;6.00;99.90
9371;DHT22;4725;48.384;8.984;2023-12-20T10:54:41;6.00;99.90
9371;DHT22;4725;48.384;8.984;2023-12-20T10:57:08;5.80;99.90
9371;DHT22;4725;48.384;8.984;2023-12-20T10:59:36;5.70;99.90
9371;DHT22;4725;48.384;8.984;2023-12-20T11:02:04;5.70;99.90
9371;DHT22;4725;48.384;8.984;2023-12-20T11:04:37;5.90;99.90
9371;DHT22;4725;48.384;8.984;2023-12-20T11:07:12;6.90;99.90
9371;DHT22;4725;48.384;8.984;2023-12-20T11:09:49;7.40;99.90
9371;DHT22;4725;48.384;8.984;2023-12-20T11:12:24;6.90;99.90
9371;DHT22;4725;48.384;8.984;2023-12-20T11:14:54;6.50;99.90
9371;DHT22;4725;48.384;8.984;2023-12-20T11:17:23;6.00;99.90
9371;DHT22;4725;48.384;8.984;2023-12-20T11:20:07;5.70;99.90
9371;DHT22;4725;48.384;8.984;2023-12-20T11:22:36;5.50;99.90
9371;DHT22;4725;48.384;8.984;2023-12-20T11:25:07;5.50;99.90
9371;DHT22;4725;48.384;8.984;2023-12-20T11:27:35;5.60;99.90
9371;DHT22;4725;48.384;8.984;2023-12-20T11:30:04;5.60;99.90
9371;DHT22;4725;48.384;8.984;2023-12-20T11:32:34;5.50;99.90
9371;DHT22;4725;48.384;8.984;2023-12-20T11:35:17;5.10;99.90
9371;DHT22;4725;48.384;8.984;2023-12-20T11:37:44;5.00;99.90
9371;DHT22;4725;48.384;8.984;2023-12-20T11:40:15;5.00;99.90
9371;DHT22;4725;48.384;8.984;2023-12-20T11:42:44;5.00;99.90
9371;DHT22;4725;48.384;8.984;2023-12-20T11:45:13;4.60;99.90
9371;DHT22;4725;48.384;8.984;2023-12-20T11:47:42;4.60;99.90
9371;DHT22;4725;48.384;8.984;2023-12-20T11:50:09;4.60;99.90
9371;DHT22;4725;48.384;8.984;2023-12-20T11:52:36;4.60;99.90
9371;DHT22;4725;48.384;8.984;2023-12-20T11:55:04;4.50;99.90
9371;DHT22;4725;48.384;8.984;2023-12-20T11:57:33;4.50;99.90
9371;DHT22;4725;48.384;8.984;2023-12-20T12:00:00;4.60;99.90
9371;DHT22;4725;48.384;8.984;2023-12-20T12:04:55;4.60;99.90
9371;DHT22;4725;48.384;8.984;2023-12-20T12:07:24;4.50;99.90
9371;DHT22;4725;48.384;8.984;2023-12-20T12:09:51;4.70;99.90
9371;DHT22;4725;48.384;8.984;2023-12-20T12:12:19;4.60;99.90
9371;DHT22;4725;48.384;8.984;2023-12-20T12:14:49;4.80;99.90
9371;DHT22;4725;48.384;8.984;2023-12-20T12:17:16;4.70;99.90
9371;DHT22;4725;48.384;8.984;2023-12-20T12:19:43;4.40;99.90
9371;DHT22;4725;48.384;8.984;2023-12-20T12:22:12;4.30;99.90
9371;DHT22;4725;48.384;8.984;2023-12-20T12:24:39;4.10;99.90
9371;DHT22;4725;48.384;8.984;2023-12-20T12:27:06;4.00;99.90
9371;DHT22;4725;48.384;8.984;2023-12-20T12:29:33;4.10;99.90
9371;DHT22;4725;48.384;8.984;2023-12-20T12:32:05;4.20;99.90
9371;DHT22;4725;48.384;8.984;2023-12-20T12:34:32;4.10;99.90
9371;DHT22;4725;48.384;8.984;2023-12-20T12:36:59;4.20;99.90
9371;DHT22;4725;48.384;8.984;2023-12-20T12:39:26;4.20;99.90
9371;DHT22;4725;48.384;8.984;2023-12-20T12:41:55;4.20;99.90
9371;DHT22;4725;48.384;8.984;2023-12-20T12:44:22;4.30;99.90
9371;DHT22;4725;48.384;8.984;2023-12-20T12:46:50;4.40;99.90
9371;DHT22;4725;48.384;8.984;2023-12-20T12:49:20;4.40;99.90
9371;DHT22;4725;48.384;8.984;2023-12-20T12:51:48;4.70;99.90
9371;DHT22;4725;48.384;8.984;2023-12-20T12:54:15;4.80;99.90
9371;DHT22;4725;48.384;8.984;2023-12-20T12:56:44;4.80;99.90
9371;DHT22;4725;48.384;8.984;2023-12-20T12:59:12;5.00;99.90
9371;DHT22;4725;48.384;8.984;2023-12-20T13:01:39;5.00;99.90
9371;DHT22;4725;48.384;8.984;2023-12-20T13:06:37;4.90;99.90
9371;DHT22;4725;48.384;8.984;2023-12-20T13:09:04;4.90;99.90
9371;DHT22;4725;48.384;8.984;2023-12-20T13:11:31;4.90;99.90
9371;DHT22;4725;48.384;8.984;2023-12-20T13:13:58;4.50;99.90
9371;DHT22;4725;48.384;8.984;2023-12-20T13:16:25;4.30;99.90
9371;DHT22;4725;48.384;8.984;2023-12-20T13:18:52;4.20;99.90
9371;DHT22;4725;48.384;8.984;2023-12-20T13:21:19;4.20;99.90
9371;DHT22;4725;48.384;8.984;2023-12-20T13:23:47;4.20;99.90
9371;DHT22;4725;48.384;8.984;2023-12-20T13:26:14;4.10;99.90
9371;DHT22;4725;48.384;8.984;2023-12-20T13:31:09;4.00;99.90
9371;DHT22;4725;48.384;8.984;2023-12-20T13:36:04;4.00;99.90
9371;DHT22;4725;48.384;8.984;2023-12-20T13:41:01;4.00;99.90
9371;DHT22;4725;48.384;8.984;2023-12-20T13:43:28;4.00;99.90
9371;DHT22;4725;48.384;8.984;2023-12-20T13:45:55;3.80;99.90
9371;DHT22;4725;48.384;8.984;2023-12-20T13:48:23;3.70;99.90
9371;DHT22;4725;48.384;8.984;2023-12-20T13:50:51;3.80;99.90
9371;DHT22;4725;48.384;8.984;2023-12-20T13:53:20;4.00;99.90
9371;DHT22;4725;48.384;8.984;2023-12-20T13:55:47;4.40;99.90
9371;DHT22;4725;48.384;8.984;2023-12-20T13:58:16;4.40;99.90
9371;DHT22;4725;48.384;8.984;2023-12-20T14:00:43;4.30;99.90
9371;DHT22;4725;48.384;8.984;2023-12-20T14:03:10;4.40;99.90
9371;DHT22;4725;48.384;8.984;2023-12-20T14:05:37;4.70;99.90
9371;DHT22;4725;48.384;8.984;2023-12-20T14:08:05;4.70;99.90
9371;DHT22;4725;48.384;8.984;2023-12-20T14:10:32;4.70;99.90
9371;DHT22;4725;48.384;8.984;2023-12-20T14:12:58;4.80;99.90
9371;DHT22;4725;48.384;8.984;2023-12-20T14:15:27;4.80;99.90
9371;DHT22;4725;48.384;8.984;2023-12-20T14:17:53;4.70;99.90
9371;DHT22;4725;48.384;8.984;2023-12-20T14:20:21;4.40;99.90
9371;DHT22;4725;48.384;8.984;2023-12-20T14:22:48;4.40;99.90
9371;DHT22;4725;48.384;8.984;2023-12-20T14:25:15;4.30;99.90
9371;DHT22;4725;48.384;8.984;2023-12-20T14:27:42;3.90;99.90
9371;DHT22;4725;48.384;8.984;2023-12-20T14:30:12;3.80;99.90
9371;DHT22;4725;48.384;8.984;2023-12-20T14:32:40;3.80;99.90
9371;DHT22;4725;48.384;8.984;2023-12-20T14:35:08;3.80;99.90
9371;DHT22;4725;48.384;8.984;2023-12-20T14:37:35;3.80;99.90
9371;DHT22;4725;48.384;8.984;2023-12-20T14:40:05;3.80;99.90
9371;DHT22;4725;48.384;8.984;2023-12-20T14:42:32;3.80;99.90
9371;DHT22;4725;48.384;8.984;2023-12-20T14:44:59;3.80;99.90
9371;DHT22;4725;48.384;8.984;2023-12-20T14:47:25;6.10;99.90
9371;DHT22;4725;48.384;8.984;2023-12-20T14:49:54;3.80;99.90
9371;DHT22;4725;48.384;8.984;2023-12-20T14:52:20;3.70;99.90
9371;DHT22;4725;48.384;8.984;2023-12-20T14:54:48;3.60;99.90
9371;DHT22;4725;48.384;8.984;2023-12-20T14:57:15;3.50;99.90
9371;DHT22;4725;48.384;8.984;2023-12-20T14:59:43;3.40;99.90
9371;DHT22;4725;48.384;8.984;2023-12-20T15:07:07;3.40;99.90
9371;DHT22;4725;48.384;8.984;2023-12-20T15:09:34;3.30;99.90
9371;DHT22;4725;48.384;8.984;2023-12-20T15:12:01;3.30;99.90
9371;DHT22;4725;48.384;8.984;2023-12-20T15:14:28;3.30;99.90
9371;DHT22;4725;48.384;8.984;2023-12-20T15:16:55;3.30;99.90
9371;DHT22;4725;48.384;8.984;2023-12-20T15:19:22;3.20;99.90
9371;DHT22;4725;48.384;8.984;2023-12-20T15:21:49;3.20;99.90
9371;DHT22;4725;48.384;8.984;2023-12-20T15:24:17;3.20;99.90
9371;DHT22;4725;48.384;8.984;2023-12-20T15:26:51;3.10;99.90
9371;DHT22;4725;48.384;8.984;2023-12-20T15:29:19;3.20;99.90
9371;DHT22;4725;48.384;8.984;2023-12-20T15:31:47;3.20;99.90
9371;DHT22;4725;48.384;8.984;2023-12-20T15:34:14;3.20;99.90
9371;DHT22;4725;48.384;8.984;2023-12-20T15:36:42;3.20;99.90
9371;DHT22;4725;48.384;8.984;2023-12-20T15:39:09;3.30;99.90
9371;DHT22;4725;48.384;8.984;2023-12-20T15:41:41;3.40;99.90
9371;DHT22;4725;48.384;8.984;2023-12-20T15:44:08;3.20;99.90
9371;DHT22;4725;48.384;8.984;2023-12-20T15:46:35;3.20;99.90
9371;DHT22;4725;48.384;8.984;2023-12-20T15:49:02;3.10;99.90
9371;DHT22;4725;48.384;8.984;2023-12-20T15:51:29;3.10;99.90
9371;DHT22;4725;48.384;8.984;2023-12-20T15:53:55;3.10;99.90
9371;DHT22;4725;48.384;8.984;2023-12-20T15:56:22;3.00;99.90
9371;DHT22;4725;48.384;8.984;2023-12-20T15:58:50;3.00;99.90
9371;DHT22;4725;48.384;8.984;2023-12-20T16:01:20;3.00;99.90
9371;DHT22;4725;48.384;8.984;2023-12-20T16:03:46;2.90;99.90
9371;DHT22;4725;48.384;8.984;2023-12-20T16:06:13;2.90;99.90
9371;DHT22;4725;48.384;8.984;2023-12-20T16:08:41;2.80;99.90
9371;DHT22;4725;48.384;8.984;2023-12-20T16:11:08;2.90;99.90
9371;DHT22;4725;48.384;8.984;2023-12-20T16:13:35;2.80;99.90
9371;DHT22;4725;48.384;8.984;2023-12-20T16:16:04;2.70;99.90
9371;DHT22;4725;48.384;8.984;2023-12-20T16:18:31;2.70;99.90
9371;DHT22;4725;48.384;8.984;2023-12-20T16:20:58;2.70;99.90
9371;DHT22;4725;48.384;8.984;2023-12-20T16:23:26;2.60;99.90
9371;DHT22;4725;48.384;8.984;2023-12-20T16:25:53;2.70;99.90
9371;DHT22;4725;48.384;8.984;2023-12-20T16:28:20;2.70;99.90
9371;DHT22;4725;48.384;8.984;2023-12-20T16:30:48;2.70;99.90
9371;DHT22;4725;48.384;8.984;2023-12-20T16:33:16;2.60;99.90
9371;DHT22;4725;48.384;8.984;2023-12-20T16:35:43;2.70;99.90
9371;DHT22;4725;48.384;8.984;2023-12-20T16:38:10;2.60;99.90
9371;DHT22;4725;48.384;8.984;2023-12-20T16:40:37;2.60;99.90
9371;DHT22;4725;48.384;8.984;2023-12-20T16:43:04;2.50;99.90
9371;DHT22;4725;48.384;8.984;2023-12-20T16:45:30;2.50;99.90